Aurora Australis — VNAA — position and weather

sailwx.info

Track history (hours):
 
Tides and Currents Weather Stations Pressure Air Temp Water Temp Dewpoint Dewpoint Depression Visibility Wind Speed Wind Dir Waves Ship Positions

Oceanographic research ship Aurora Australis (Australia)

Detailed information on ship capabilities available from University of Delaware's Ocean Information Center.

Last reported at 2016-Jan-11 23:13 UTC. Time now 2016-Feb-07 08:33 UTC.
Position S 44°52' E 144°41'.
Warning: this ship's position is 26 days out of date.

Length 94.9 m; beam 20.3 m; draft 7.9 m.

Type: Ship. MMSI: 503043000.

Date/timePositionNaut miles runAvg speedWind from/ knotsBaromVisibWave heightAir tempDewpointWater temp
2016-Jan-11 23:13S 44°52' E 144°41'10 5.5
2016-Jan-11 21:29S 44°47' E 144°52'1110.6
2016-Jan-11 20:29S 44°41' E 145°05'3611.6
2016-Jan-11 17:24S 44°21' E 145°46'1715.7
2016-Jan-11 16:18S 44°11' E 146°06'21 9.5
2016-Jan-11 14:07S 43°59' E 146°30'1816.5
2016-Jan-11 13:03S 43°50' E 146°50'2 2.9
2016-Jan-11 12:29S 43°49' E 146°52'1615.4
2016-Jan-11 11:24S 43°39' E 147°11'1 1.0
2016-Jan-11 10:33S 43°39' E 147°12'1110.7
2016-Jan-11 09:33S 43°31' E 147°22'1212.1
2016-Jan-11 08:32S 43°20' E 147°28'1211.9
2016-Jan-11 07:33S 43°08' E 147°26'1212.0
2016-Jan-11 06:33S 42°56' E 147°23'  
2016-Jan-07 19:26S 42°53' E 147°20'0 0.0
2016-Jan-07 18:33S 42°53' E 147°20'0 0.0
2016-Jan-07 17:31S 42°53' E 147°20'0 0.0
2016-Jan-07 16:31S 42°53' E 147°20'0 0.0
2016-Jan-07 15:31S 42°53' E 147°20'0 0.0
2016-Jan-07 14:31S 42°53' E 147°20'0 0.0
2016-Jan-07 13:31S 42°53' E 147°20'0 0.0
2016-Jan-07 12:31S 42°53' E 147°20'0 0.0
2016-Jan-07 11:31S 42°53' E 147°20'0 0.1
2016-Jan-07 10:31S 42°53' E 147°20'0 0.0
2016-Jan-07 09:31S 42°53' E 147°20'0 0.0
2016-Jan-07 08:31S 42°53' E 147°20'0 0.0
2016-Jan-07 07:31S 42°53' E 147°20'0 0.0
2016-Jan-07 06:28S 42°53' E 147°20'0 0.0
2016-Jan-07 05:31S 42°53' E 147°20'0 0.0
2016-Jan-07 04:31S 42°53' E 147°20'0 0.0
2016-Jan-07 03:31S 42°53' E 147°20'0 0.0
2016-Jan-07 02:32S 42°53' E 147°20'0 0.0
2016-Jan-07 01:33S 42°53' E 147°20'0 0.0
2016-Jan-07 00:33S 42°53' E 147°20'0 0.0
2016-Jan-06 23:33S 42°53' E 147°20'0 0.0
2016-Jan-06 22:32S 42°53' E 147°20'0 0.0
2016-Jan-06 21:31S 42°53' E 147°20'0 0.0
2016-Jan-06 20:32S 42°53' E 147°20'1 0.7
2016-Jan-06 19:33S 42°53' E 147°21'4 4.4
2016-Jan-06 18:33S 42°58' E 147°23'9 8.8
2016-Jan-06 17:33S 43°06' E 147°25'1010.0
2016-Jan-06 16:33S 43°16' E 147°28'1010.3
2016-Jan-06 15:33S 43°26' E 147°25'1010.3
2016-Jan-06 14:33S 43°36' E 147°19'10 9.9
2016-Jan-06 13:33S 43°42' E 147°09'2712.2
2016-Jan-06 11:22S 43°59' E 146°41'3110.1
2016-Jan-06 08:15S 44°20' E 146°08'1011.2
2016-Jan-06 07:19S 44°27' E 145°57'1013.7
2016-Jan-06 06:33S 44°34' E 145°46'1110.7
2016-Jan-06 05:31S 44°42' E 145°35'1211.6
2016-Jan-06 04:30S 44°49' E 145°22'1615.9
2016-Jan-06 03:31S 44°60' E 145°06'29113.5
2016-Jan-05 06:00S 48°12' E 139°48'16613.8 300 / 241014.310.8 1.011.310.711.1
2016-Jan-04 18:00S 50°00' E 136°36'16113.4 330 / 261015.610.8 1.0 9.1 8.510.1
2016-Jan-04 06:00S 51°54' E 133°36'47513.2 330 / 221020.010.8 1.0 7.9 7.3 7.4
2016-Jan-02 18:00S 57°18' E 123°36'   320 / 251000.210.8 1.0 3.1 1.0 2.9
Track history (hours):
 
Tides and Currents Weather Stations Pressure Air Temp Water Temp Dewpoint Dewpoint Depression Visibility Wind Speed Wind Dir Waves Ship Positions

Oceanographic research ship Aurora Australis (Australia)

Detailed information on ship capabilities available from University of Delaware's Ocean Information Center.

Last reported at 2016-Jan-11 23:13 UTC. Time now 2016-Feb-07 08:33 UTC.
Position S 44°52' E 144°41'.
Warning: this ship's position is 26 days out of date.

Length 94.9 m; beam 20.3 m; draft 7.9 m.

Type: Ship. MMSI: 503043000.

Date/timePositionNaut miles runAvg speedWind from/ knotsBaromVisibWave heightAir tempDewpointWater temp
2016-Jan-11 23:13S 44°52' E 144°41'10 5.5
2016-Jan-11 21:29S 44°47' E 144°52'1110.6
2016-Jan-11 20:29S 44°41' E 145°05'3611.6
2016-Jan-11 17:24S 44°21' E 145°46'1715.7
2016-Jan-11 16:18S 44°11' E 146°06'21 9.5
2016-Jan-11 14:07S 43°59' E 146°30'1816.5
2016-Jan-11 13:03S 43°50' E 146°50'2 2.9
2016-Jan-11 12:29S 43°49' E 146°52'1615.4
2016-Jan-11 11:24S 43°39' E 147°11'1 1.0
2016-Jan-11 10:33S 43°39' E 147°12'1110.7
2016-Jan-11 09:33S 43°31' E 147°22'1212.1
2016-Jan-11 08:32S 43°20' E 147°28'1211.9
2016-Jan-11 07:33S 43°08' E 147°26'1212.0
2016-Jan-11 06:33S 42°56' E 147°23'  
2016-Jan-07 19:26S 42°53' E 147°20'0 0.0
2016-Jan-07 18:33S 42°53' E 147°20'0 0.0
2016-Jan-07 17:31S 42°53' E 147°20'0 0.0
2016-Jan-07 16:31S 42°53' E 147°20'0 0.0
2016-Jan-07 15:31S 42°53' E 147°20'0 0.0
2016-Jan-07 14:31S 42°53' E 147°20'0 0.0
2016-Jan-07 13:31S 42°53' E 147°20'0 0.0
2016-Jan-07 12:31S 42°53' E 147°20'0 0.0
2016-Jan-07 11:31S 42°53' E 147°20'0 0.1
2016-Jan-07 10:31S 42°53' E 147°20'0 0.0
2016-Jan-07 09:31S 42°53' E 147°20'0 0.0
2016-Jan-07 08:31S 42°53' E 147°20'0 0.0
2016-Jan-07 07:31S 42°53' E 147°20'0 0.0
2016-Jan-07 06:28S 42°53' E 147°20'0 0.0
2016-Jan-07 05:31S 42°53' E 147°20'0 0.0
2016-Jan-07 04:31S 42°53' E 147°20'0 0.0
2016-Jan-07 03:31S 42°53' E 147°20'0 0.0
2016-Jan-07 02:32S 42°53' E 147°20'0 0.0
2016-Jan-07 01:33S 42°53' E 147°20'0 0.0
2016-Jan-07 00:33S 42°53' E 147°20'0 0.0
2016-Jan-06 23:33S 42°53' E 147°20'0 0.0
2016-Jan-06 22:32S 42°53' E 147°20'0 0.0
2016-Jan-06 21:31S 42°53' E 147°20'0 0.0
2016-Jan-06 20:32S 42°53' E 147°20'1 0.7
2016-Jan-06 19:33S 42°53' E 147°21'4 4.4
2016-Jan-06 18:33S 42°58' E 147°23'9 8.8
2016-Jan-06 17:33S 43°06' E 147°25'1010.0
2016-Jan-06 16:33S 43°16' E 147°28'1010.3
2016-Jan-06 15:33S 43°26' E 147°25'1010.3
2016-Jan-06 14:33S 43°36' E 147°19'10 9.9
2016-Jan-06 13:33S 43°42' E 147°09'2712.2
2016-Jan-06 11:22S 43°59' E 146°41'3110.1
2016-Jan-06 08:15S 44°20' E 146°08'1011.2
2016-Jan-06 07:19S 44°27' E 145°57'1013.7
2016-Jan-06 06:33S 44°34' E 145°46'1110.7
2016-Jan-06 05:31S 44°42' E 145°35'1211.6
2016-Jan-06 04:30S 44°49' E 145°22'1615.9
2016-Jan-06 03:31S 44°60' E 145°06'29113.5
2016-Jan-05 06:00S 48°12' E 139°48'16613.8 300 / 241014.310.8 1.011.310.711.1
2016-Jan-04 18:00S 50°00' E 136°36'16113.4 330 / 261015.610.8 1.0 9.1 8.510.1
2016-Jan-04 06:00S 51°54' E 133°36'47513.2 330 / 221020.010.8 1.0 7.9 7.3 7.4
2016-Jan-02 18:00S 57°18' E 123°36'   320 / 251000.210.8 1.0 3.1 1.0 2.9

Dump ship's entire track history